Time;durP1;ratioP1;P1;durP2;ratioP2;P2;SDS_P1;SDS_P2;PMS_P1;PMS_P2;Temp;Humidity;BMP_temperature;BMP_pressure;BME280_temperature;BME280_humidity;BME280_pressure;Samples;Min_cycle;Max_cycle;Signal;HPM_P1;HPM_P2
2021/04/24 00:01:12;;;;;;;31.27;13.83;;;;;;;10.96;65.98;99784.77;4323670;81;28597;-83
2021/04/24 00:07:15;;;;;;;36.05;16.57;;;;;;;11.10;63.75;99787.70;4321031;81;28650;-83
2021/04/24 00:13:17;;;;;;;27.87;13.60;;;;;;;11.09;61.36;99778.48;4313775;81;28604;-83
2021/04/24 00:19:19;;;;;;;35.30;15.40;;;;;;;11.13;59.75;99780.53;4389529;80;28623;-83
2021/04/24 00:25:22;;;;;;;37.88;15.58;;;;;;;11.13;59.93;99764.39;4398411;80;28605;-83
2021/04/24 00:31:24;;;;;;;36.10;16.25;;;;;;;11.17;58.75;99766.13;4367231;80;28579;-82
2021/04/24 00:37:26;;;;;;;39.23;16.23;;;;;;;11.33;57.64;99757.20;4374573;80;28606;-82
2021/04/24 00:43:28;;;;;;;40.38;16.17;;;;;;;11.25;57.99;99767.22;4400969;79;28565;-83
2021/04/24 00:49:30;;;;;;;38.40;16.45;;;;;;;11.24;57.01;99763.39;4411080;79;28593;-82
2021/04/24 00:55:34;;;;;;;34.90;15.72;;;;;;;10.96;58.39;99764.59;4378832;80;28621;-83
2021/04/24 01:01:36;;;;;;;33.40;15.05;;;;;;;10.82;58.86;99767.36;4390047;79;28635;-83
2021/04/24 01:07:39;;;;;;;40.35;16.52;;;;;;;10.76;59.46;99756.63;4386320;80;28606;-83
2021/04/24 01:13:42;;;;;;;35.45;16.05;;;;;;;10.80;59.16;99761.88;4419547;79;28589;-82
2021/04/24 01:19:44;;;;;;;39.05;16.48;;;;;;;10.81;59.00;99757.64;4388133;80;28610;-82
2021/04/24 01:25:47;;;;;;;37.03;16.40;;;;;;;10.67;59.63;99758.22;4387257;80;28572;-83
2021/04/24 01:31:49;;;;;;;39.92;16.67;;;;;;;10.56;61.50;99759.70;4392261;80;28597;-82
2021/04/24 01:37:52;;;;;;;38.05;15.58;;;;;;;10.32;63.75;99756.66;4383816;80;28587;-82
2021/04/24 01:43:56;;;;;;;33.10;14.63;;;;;;;10.19;64.17;99756.71;4387711;80;28614;-82
2021/04/24 01:49:58;;;;;;;35.30;15.70;;;;;;;10.29;62.46;99743.66;4291115;81;28591;-82
2021/04/24 01:56:00;;;;;;;38.53;16.10;;;;;;;10.31;62.89;99744.27;4373046;81;28605;-81
2021/04/24 02:02:03;;;;;;;33.58;14.55;;;;;;;10.28;63.68;99731.77;4314914;82;28643;-81
2021/04/24 02:08:14;;;;;;;34.58;15.25;;;;;;;10.04;66.38;99726.86;4315788;82;28580;-81
2021/04/24 02:14:16;;;;;;;29.35;14.75;;;;;;;10.17;64.23;99728.70;4317108;81;28582;-81
2021/04/24 02:20:18;;;;;;;33.88;14.15;;;;;;;10.10;63.80;99733.79;4313793;82;28590;-81
2021/04/24 02:26:20;;;;;;;32.40;13.95;;;;;;;10.08;63.99;99721.90;4303612;82;28569;-81
2021/04/24 02:32:27;;;;;;;36.42;15.15;;;;;;;10.06;63.66;99709.73;4326489;82;28585;-81
2021/04/24 02:38:33;;;;;;;34.20;14.58;;;;;;;10.32;65.49;99712.85;4326930;82;28629;-81
2021/04/24 02:44:35;;;;;;;33.40;14.83;;;;;;;10.43;65.19;99694.73;4322044;81;28597;-82
2021/04/24 02:50:38;;;;;;;31.57;13.80;;;;;;;10.50;62.25;99676.39;4324754;81;28618;-82
2021/04/24 02:56:40;;;;;;;30.30;13.53;;;;;;;10.27;62.94;99670.48;4320319;80;28581;-82
2021/04/24 03:02:43;;;;;;;24.57;10.72;;;;;;;10.41;61.42;99679.82;4312298;81;28959;-82
2021/04/24 03:08:46;;;;;;;30.17;12.07;;;;;;;10.10;60.44;99710.45;4274879;81;28618;-82
2021/04/24 03:14:48;;;;;;;28.73;13.22;;;;;;;9.82;61.79;99714.73;4317535;82;28566;-82
2021/04/24 03:20:51;;;;;;;28.98;13.05;;;;;;;10.10;60.74;99717.67;4316754;81;28645;-82
2021/04/24 03:26:53;;;;;;;25.72;11.10;;;;;;;10.12;60.49;99709.71;4325825;82;28606;-83
2021/04/24 03:32:55;;;;;;;26.07;11.43;;;;;;;10.25;59.65;99710.70;4308415;81;28649;-81
2021/04/24 03:38:57;;;;;;;29.37;12.80;;;;;;;10.07;59.06;99723.47;4320414;81;28575;-81
2021/04/24 03:45:00;;;;;;;30.62;12.00;;;;;;;9.38;62.02;99739.88;4287644;81;28656;-81
2021/04/24 03:51:03;;;;;;;28.12;11.43;;;;;;;10.16;58.60;99732.95;4321544;81;28613;-82
2021/04/24 03:57:05;;;;;;;25.90;10.05;;;;;;;10.19;58.18;99736.02;4323481;81;28600;-81
2021/04/24 04:03:09;;;;;;;26.20;10.85;;;;;;;9.85;59.11;99751.40;4327418;81;28626;-82
2021/04/24 04:09:11;;;;;;;21.23;10.25;;;;;;;10.05;58.45;99747.85;4326625;81;28605;-82
2021/04/24 04:15:17;;;;;;;24.82;9.98;;;;;;;10.43;57.08;99760.60;4325876;81;28593;-82
2021/04/24 04:21:20;;;;;;;19.20;9.08;;;;;;;10.08;57.30;99759.52;4351776;81;28627;-82
2021/04/24 04:27:22;;;;;;;21.52;9.28;;;;;;;10.44;55.91;99767.63;4372240;81;28677;-81
2021/04/24 04:33:25;;;;;;;23.42;9.75;;;;;;;10.29;56.47;99772.38;4372746;81;28591;-81
2021/04/24 04:39:28;;;;;;;22.45;9.75;;;;;;;10.07;57.03;99770.49;4350059;81;28608;-82
2021/04/24 04:45:31;;;;;;;23.55;8.93;;;;;;;10.32;56.63;99767.95;4373100;80;28615;-82
2021/04/24 04:51:33;;;;;;;19.45;8.65;;;;;;;10.66;55.89;99771.36;4371107;81;28646;-83
2021/04/24 04:57:36;;;;;;;21.00;9.53;;;;;;;10.68;55.37;99777.88;4373272;80;28609;-82
2021/04/24 05:03:38;;;;;;;25.52;9.78;;;;;;;10.88;55.46;99784.00;4373219;80;28574;-82
2021/04/24 05:09:41;;;;;;;24.20;9.78;;;;;;;10.94;55.19;99791.73;4371681;81;28572;-82
2021/04/24 05:15:44;;;;;;;22.32;10.08;;;;;;;11.14;54.91;99780.84;4372457;80;28673;-82
2021/04/24 05:21:46;;;;;;;24.87;10.58;;;;;;;11.15;54.79;99753.42;4373535;80;28605;-82
2021/04/24 05:27:48;;;;;;;26.80;10.10;;;;;;;11.32;54.45;99766.33;4373541;81;28650;-82
2021/04/24 05:33:50;;;;;;;26.93;10.35;;;;;;;11.41;53.41;99783.88;4345338;81;28592;-82
2021/04/24 05:39:53;;;;;;;27.67;10.40;;;;;;;11.18;53.30;99785.27;4380118;80;28572;-83
2021/04/24 05:45:57;;;;;;;26.33;10.95;;;;;;;11.28;52.25;99782.09;4307863;82;28574;-83
2021/04/24 05:52:01;;;;;;;23.87;9.80;;;;;;;11.24;51.88;99786.27;4283828;82;28589;-83
2021/04/24 05:58:04;;;;;;;20.43;8.60;;;;;;;11.53;51.57;99780.77;4284652;83;28578;-83
2021/04/24 06:04:07;;;;;;;24.43;9.68;;;;;;;11.47;50.62;99787.05;4283432;83;28644;-82
2021/04/24 06:10:13;;;;;;;18.55;7.95;;;;;;;10.94;49.74;99800.30;4322017;82;28609;-83
2021/04/24 06:16:16;;;;;;;;;;;;;;;10.88;49.18;99798.80;4329191;81;28599;-82
2021/04/24 06:22:19;;;;;;;17.70;8.03;;;;;;;11.65;46.07;99801.60;4396537;80;20186;-84
2021/04/24 06:28:21;;;;;;;20.77;7.58;;;;;;;11.70;45.83;99812.56;4394896;80;28606;-83
2021/04/24 06:34:23;;;;;;;16.48;6.15;;;;;;;11.86;46.25;99793.67;4396761;79;28603;-84
2021/04/24 06:40:27;;;;;;;17.82;6.70;;;;;;;11.91;43.82;99799.74;4400912;80;28573;-84
2021/04/24 06:46:29;;;;;;;19.10;7.35;;;;;;;11.49;43.88;99805.15;4395053;80;28626;-85
2021/04/24 06:52:31;;;;;;;15.40;6.92;;;;;;;11.85;44.09;99802.80;4401995;80;28592;-81
2021/04/24 06:58:33;;;;;;;16.67;6.72;;;;;;;12.30;42.91;99798.25;4387037;80;28673;-82
2021/04/24 07:04:35;;;;;;;18.95;6.40;;;;;;;12.58;42.01;99794.22;4394658;80;28575;-85
2021/04/24 07:10:38;;;;;;;13.20;5.47;;;;;;;12.07;41.88;99799.19;4372214;80;28573;-82
2021/04/24 07:16:40;;;;;;;10.63;5.08;;;;;;;12.55;41.39;99786.05;4386501;80;28634;-82
2021/04/24 07:22:42;;;;;;;12.10;4.90;;;;;;;12.49;40.63;99783.73;4370149;80;29023;-82
2021/04/24 07:28:44;;;;;;;13.03;4.67;;;;;;;12.70;39.51;99785.66;4373424;80;28601;-82
2021/04/24 07:34:46;;;;;;;11.57;5.17;;;;;;;12.96;39.15;99779.60;4390340;80;28962;-82
2021/04/24 07:40:49;;;;;;;13.10;5.70;;;;;;;12.82;39.98;99789.77;4330419;80;28568;-84
2021/04/24 07:46:52;;;;;;;15.70;6.78;;;;;;;13.20;39.99;99785.11;4304301;81;28622;-83
2021/04/24 07:52:55;;;;;;;14.28;6.33;;;;;;;13.33;41.53;99782.71;4395328;79;28607;-83
2021/04/24 07:58:57;;;;;;;16.23;6.37;;;;;;;13.50;41.18;99781.58;4392932;79;28576;-84
2021/04/24 08:05:00;;;;;;;13.20;5.55;;;;;;;13.66;41.01;99771.42;4375938;79;28609;-83
2021/04/24 08:11:04;;;;;;;11.48;5.20;;;;;;;13.77;39.42;99768.95;4389988;79;28567;-83
2021/04/24 08:17:07;;;;;;;12.60;5.30;;;;;;;13.49;38.91;99779.38;4381243;79;28592;-81
2021/04/24 08:23:09;;;;;;;9.88;4.50;;;;;;;13.89;38.13;99763.02;4372569;80;28685;-83
2021/04/24 08:29:12;;;;;;;12.33;4.55;;;;;;;13.51;38.72;99783.22;4355144;80;28607;-81
2021/04/24 08:35:15;;;;;;;9.93;4.78;;;;;;;14.30;37.44;99756.36;4377147;80;28656;-83
2021/04/24 08:41:18;;;;;;;12.78;4.25;;;;;;;14.50;36.48;99760.00;4373256;80;28607;-83
2021/04/24 08:47:24;;;;;;;10.30;4.12;;;;;;;14.69;36.96;99769.86;4376195;80;28597;-83
2021/04/24 08:53:26;;;;;;;;;;;;;;;15.26;35.11;99756.85;4363493;81;28596;-87
2021/04/24 08:59:28;;;;;;;10.43;4.65;;;;;;;15.96;34.81;99749.00;4357615;80;20290;-84
2021/04/24 09:05:31;;;;;;;8.85;3.90;;;;;;;16.39;33.21;99752.82;4355002;80;28705;-85
2021/04/24 09:11:47;;;;;;;8.68;3.40;;;;;;;15.69;33.01;99752.39;4267418;81;28615;-83
2021/04/24 09:17:57;;;;;;;6.25;3.40;;;;;;;16.51;32.13;99747.83;4387776;81;28569;-85
2021/04/24 09:23:59;;;;;;;10.82;3.90;;;;;;;16.13;31.96;99747.59;4344065;80;28652;-84
2021/04/24 09:30:24;;;;;;;8.90;3.55;;;;;;;15.43;32.13;99743.31;4327682;80;28602;-83
2021/04/24 09:36:35;;;;;;;7.72;3.58;;;;;;;16.00;30.91;99731.17;4339368;80;28591;-84
2021/04/24 09:42:41;;;;;;;9.00;3.40;;;;;;;15.51;31.78;99732.59;4331543;80;28680;-84
2021/04/24 09:48:43;;;;;;;9.83;3.75;;;;;;;16.07;30.70;99741.28;4355632;80;28603;-84
2021/04/24 09:54:47;;;;;;;7.80;3.40;;;;;;;16.11;31.81;99732.11;4358953;80;28674;-83
2021/04/24 10:00:49;;;;;;;7.30;3.58;;;;;;;16.20;31.15;99736.03;4348891;80;28664;-82
2021/04/24 10:06:55;;;;;;;9.08;3.80;;;;;;;15.89;31.37;99720.16;4353732;80;28646;-84
2021/04/24 10:13:03;;;;;;;6.50;3.30;;;;;;;16.17;32.07;99722.98;4343127;80;28602;-84
2021/04/24 10:19:09;;;;;;;8.35;3.62;;;;;;;16.54;31.55;99713.38;4351684;80;28693;-85
2021/04/24 10:25:12;;;;;;;10.30;3.87;;;;;;;17.17;29.71;99696.65;4342386;80;28583;-81
2021/04/24 10:31:15;;;;;;;9.53;3.50;;;;;;;17.97;30.49;99680.85;4341785;80;28616;-85
2021/04/24 10:37:17;;;;;;;8.13;3.40;;;;;;;18.20;30.26;99682.08;4370884;80;28594;-85
2021/04/24 10:43:21;;;;;;;7.08;3.25;;;;;;;18.41;29.80;99671.27;4362943;80;28591;-92
2021/04/24 10:49:29;;;;;;;9.20;3.62;;;;;;;17.66;31.27;99660.30;4380245;80;28615;-90
2021/04/24 10:55:32;;;;;;;8.18;3.98;;;;;;;17.87;30.92;99674.56;4371108;80;28680;-91
2021/04/24 11:02:09;;;;;;;8.03;3.75;;;;;;;18.35;30.83;99669.88;4390552;81;28596;-91
2021/04/24 11:08:25;;;;;;;9.63;3.40;;;;;;;19.02;30.05;99673.85;4360358;80;28627;-92
2021/04/24 11:14:28;;;;;;;7.40;3.30;;;;;;;17.50;28.66;99672.17;4340429;81;28681;-93
2021/04/24 11:21:02;;;;;;;7.05;3.37;;;;;;;18.33;28.62;99661.72;4359698;80;28680;-93
2021/04/24 11:27:04;;;;;;;9.80;3.40;;;;;;;18.33;27.96;99647.55;4353466;81;28607;-93
2021/04/24 11:33:39;;;;;;;8.88;3.70;;;;;;;18.55;29.52;99641.63;4364339;81;28602;-90
2021/04/24 11:40:08;;;;;;;7.93;4.30;;;;;;;18.83;28.56;99648.47;4358008;80;28614;-90
2021/04/24 11:46:52;;;;;;;9.65;3.90;;;;;;;18.30;30.54;99641.30;4297525;83;28951;-86
2021/04/24 11:52:56;;;;;;;8.83;4.40;;;;;;;19.18;30.46;99640.59;4249265;83;28586;-92
2021/04/24 11:58:59;;;;;;;7.58;3.98;;;;;;;19.21;29.88;99640.05;4301325;80;28534;-90
2021/04/24 12:05:09;;;;;;;8.53;3.60;;;;;;;18.94;28.96;99624.75;4302971;81;28567;-90
2021/04/24 12:11:11;;;;;;;8.70;3.75;;;;;;;19.12;28.85;99635.70;4291744;81;28639;-89
2021/04/24 12:17:18;;;;;;;7.00;3.40;;;;;;;19.32;29.21;99632.69;4378401;80;28649;-88
2021/04/24 12:23:24;;;;;;;8.05;3.50;;;;;;;19.56;28.83;99623.34;4376007;80;28619;-91
2021/04/24 12:29:46;;;;;;;7.85;3.50;;;;;;;19.26;27.19;99603.78;4345750;81;28680;-88
2021/04/24 12:49:55;;;;;;;6.58;3.12;;;;;;;18.42;26.96;99598.03;4620108;76;86090;-91
2021/04/24 12:56:23;;;;;;;7.20;2.90;;;;;;;19.30;27.55;99588.50;4520905;76;28590;-89
2021/04/24 13:02:34;;;;;;;5.60;2.50;;;;;;;19.00;27.62;99581.47;4482319;78;28622;-89
2021/04/24 13:08:37;;;;;;;6.80;2.70;;;;;;;19.05;26.19;99577.92;4498853;78;28588;-85
2021/04/24 13:14:48;;;;;;;5.83;2.50;;;;;;;19.57;26.85;99577.80;4503765;78;28621;-88
2021/04/24 13:20:50;;;;;;;7.12;2.42;;;;;;;19.76;26.80;99575.27;4493490;79;28591;-88
2021/04/24 13:26:58;;;;;;;5.92;2.40;;;;;;;19.23;25.70;99569.71;4492256;78;28641;-88
2021/04/24 13:33:02;;;;;;;7.80;3.17;;;;;;;19.72;26.79;99562.73;4492840;78;28613;-88
2021/04/24 13:39:05;;;;;;;8.33;2.90;;;;;;;19.60;27.10;99562.24;4509826;78;28591;-90
2021/04/24 13:45:15;;;;;;;6.42;2.67;;;;;;;19.72;27.21;99546.94;4380836;80;28561;-90
2021/04/24 13:51:18;;;;;;;5.58;2.50;;;;;;;19.37;27.00;99552.23;4371100;80;28576;-88
2021/04/24 13:57:20;;;;;;;8.55;2.60;;;;;;;19.39;26.45;99548.68;4328719;81;28990;-84
2021/04/24 14:03:22;;;;;;;6.95;2.75;;;;;;;19.52;27.23;99541.83;4352717;81;28619;-93
2021/04/24 14:09:24;;;;;;;5.05;2.52;;;;;;;19.08;26.77;99537.32;4321118;81;28587;-90
2021/04/24 14:15:27;;;;;;;7.12;2.70;;;;;;;19.02;27.39;99534.89;4384800;80;28594;-90
2021/04/24 14:21:29;;;;;;;7.85;3.15;;;;;;;18.91;27.18;99533.51;4363970;80;28628;-91
2021/04/24 14:27:31;;;;;;;6.08;2.70;;;;;;;18.44;27.04;99536.80;4368216;81;28596;-94
2021/04/24 14:33:34;;;;;;;7.15;3.15;;;;;;;18.87;26.59;99522.88;4364087;80;28609;-89
2021/04/24 14:39:37;;;;;;;9.90;3.25;;;;;;;18.76;27.56;99521.25;4350879;80;28647;-86
2021/04/24 14:45:39;;;;;;;8.50;2.98;;;;;;;18.21;28.81;99523.16;4369770;80;28591;-89
2021/04/24 14:51:41;;;;;;;7.40;3.30;;;;;;;18.30;27.65;99519.34;4318250;81;28595;-89
2021/04/24 14:57:46;;;;;;;7.53;2.87;;;;;;;18.35;29.40;99516.64;4392326;80;28581;-89
2021/04/24 15:03:48;;;;;;;10.65;3.67;;;;;;;18.27;28.39;99514.45;4398271;80;28669;-87
2021/04/24 15:09:51;;;;;;;7.97;3.10;;;;;;;18.20;28.57;99509.28;4312067;81;28659;-87
2021/04/24 15:15:55;;;;;;;7.03;3.40;;;;;;;18.04;29.02;99505.72;4317981;81;28623;-86
2021/04/24 15:22:01;;;;;;;8.70;4.00;;;;;;;17.56;29.41;99510.70;4303712;81;28600;-86
2021/04/24 15:28:06;;;;;;;7.53;3.60;;;;;;;17.77;29.31;99511.61;4291807;81;28640;-91
2021/04/24 15:34:09;;;;;;;10.20;3.60;;;;;;;18.09;29.47;99511.16;4387438;80;28587;-86
2021/04/24 15:40:14;;;;;;;9.63;3.83;;;;;;;17.96;29.87;99504.29;4308321;82;28604;-84
2021/04/24 15:46:16;;;;;;;7.65;3.27;;;;;;;17.63;30.43;99499.58;4389326;80;28650;-83
2021/04/24 15:52:19;;;;;;;8.05;3.70;;;;;;;17.74;30.43;99494.45;4350482;81;28632;-85
2021/04/24 15:58:21;;;;;;;8.15;3.80;;;;;;;17.80;30.72;99504.27;4349873;81;28633;-85
2021/04/24 16:04:23;;;;;;;10.10;3.77;;;;;;;17.66;30.84;99503.15;4329259;81;28591;-84
2021/04/24 16:10:26;;;;;;;8.65;4.15;;;;;;;17.05;31.64;99497.16;4373165;81;28575;-86
2021/04/24 16:16:28;;;;;;;8.35;3.83;;;;;;;17.44;31.49;99487.02;4314779;81;28590;-83
2021/04/24 16:22:30;;;;;;;10.08;3.58;;;;;;;17.20;31.80;99486.11;4322864;81;28605;-87
2021/04/24 16:28:33;;;;;;;11.10;4.25;;;;;;;17.23;32.11;99485.05;4289067;81;28606;-86
2021/04/24 16:34:35;;;;;;;8.50;4.37;;;;;;;17.21;32.42;99481.75;4305121;81;28645;-89
2021/04/24 16:40:37;;;;;;;8.48;4.30;;;;;;;16.82;33.01;99475.28;4361544;80;28594;-86
2021/04/24 16:46:39;;;;;;;11.33;4.85;;;;;;;17.08;32.88;99470.02;4301315;81;28567;-85
2021/04/24 16:52:47;;;;;;;12.65;4.90;;;;;;;17.39;32.78;99475.06;4335439;80;28606;-89
2021/04/24 16:58:50;;;;;;;12.40;4.90;;;;;;;16.84;33.13;99474.47;4341666;81;28701;-90
2021/04/24 17:04:53;;;;;;;11.30;5.00;;;;;;;16.91;33.84;99476.39;4370678;81;28708;-88
2021/04/24 17:10:59;;;;;;;12.35;5.72;;;;;;;16.79;33.93;99482.05;4363017;80;28559;-96
2021/04/24 17:17:01;;;;;;;11.33;5.62;;;;;;;17.04;34.08;99480.58;4365993;80;28623;-93
2021/04/24 17:23:07;;;;;;;14.53;5.85;;;;;;;16.72;34.41;99478.73;4353541;81;28618;-90
2021/04/24 17:29:10;;;;;;;11.83;5.10;;;;;;;16.66;34.64;99481.95;4352264;81;28657;-90
2021/04/24 17:35:14;;;;;;;13.10;5.42;;;;;;;16.60;34.74;99473.48;4375440;80;28602;-93
2021/04/24 17:41:20;;;;;;;13.45;5.67;;;;;;;16.65;34.84;99476.24;4353922;80;28673;-88
2021/04/24 17:47:23;;;;;;;11.88;5.15;;;;;;;16.52;35.27;99471.27;4363696;81;28590;-87
2021/04/24 17:53:25;;;;;;;15.38;5.58;;;;;;;16.43;35.59;99466.31;4337758;81;28626;-90
2021/04/24 17:59:31;;;;;;;11.83;5.25;;;;;;;16.47;35.59;99461.19;4323995;80;28637;-87
2021/04/24 18:05:34;;;;;;;14.33;5.55;;;;;;;16.19;37.22;99459.06;4366270;80;28575;-84
2021/04/24 18:11:36;;;;;;;14.93;6.17;;;;;;;16.25;36.78;99460.75;4369943;80;28586;-86
2021/04/24 18:17:42;;;;;;;13.83;5.80;;;;;;;16.12;37.08;99465.22;4365474;80;29038;-83
2021/04/24 18:23:45;;;;;;;13.85;6.10;;;;;;;16.05;38.02;99465.44;4356646;80;28606;-85
2021/04/24 18:29:48;;;;;;;14.30;6.17;;;;;;;15.84;38.67;99467.13;4345198;80;28610;-84
2021/04/24 18:35:55;;;;;;;16.97;7.30;;;;;;;15.78;39.30;99470.84;4399290;80;28587;-91
2021/04/24 18:41:58;;;;;;;19.40;7.78;;;;;;;15.69;38.99;99475.91;4298486;81;28611;-86
2021/04/24 18:48:01;;;;;;;16.05;7.90;;;;;;;15.69;39.31;99478.62;4357941;81;28959;-86
2021/04/24 18:54:05;;;;;;;16.52;7.42;;;;;;;15.41;40.20;99478.58;4351690;81;28630;-84
2021/04/24 19:00:17;;;;;;;17.95;7.67;;;;;;;15.48;40.65;99479.73;4389728;80;28636;-84
2021/04/24 19:06:19;;;;;;;20.90;9.15;;;;;;;15.40;40.87;99482.33;4300407;81;28571;-87
2021/04/24 19:12:21;;;;;;;21.00;8.23;;;;;;;15.32;41.09;99480.09;4356005;80;28653;-86
2021/04/24 19:18:29;;;;;;;19.67;9.93;;;;;;;15.10;42.85;99486.31;4353839;81;28614;-88
2021/04/24 19:24:30;;;;;;;24.25;11.20;;;;;;;14.35;42.89;99489.21;4340701;80;28615;-88
2021/04/24 19:30:33;;;;;;;20.32;9.25;;;;;;;14.24;42.55;99488.20;4370872;80;28584;-88
2021/04/24 19:36:35;;;;;;;17.82;8.83;;;;;;;14.93;41.37;99493.64;4363628;81;28600;-87
2021/04/24 19:42:42;;;;;;;19.10;8.88;;;;;;;14.75;40.58;99497.73;4367415;80;28575;-88
2021/04/24 19:48:44;;;;;;;22.30;9.50;;;;;;;15.13;40.96;99497.98;4363887;80;28575;-88
2021/04/24 19:54:46;;;;;;;17.62;8.05;;;;;;;14.98;44.21;99491.82;4360649;81;28576;-87
2021/04/24 20:00:50;;;;;;;19.57;8.73;;;;;;;14.80;40.27;99496.16;4351349;81;28576;-86
2021/04/24 20:06:52;;;;;;;15.93;8.30;;;;;;;14.84;43.61;99491.88;4357369;81;28607;-90
2021/04/24 20:12:55;;;;;;;21.00;9.00;;;;;;;14.67;44.58;99485.92;4354484;81;28594;-85
2021/04/24 20:18:57;;;;;;;19.60;9.33;;;;;;;14.72;46.17;99487.38;4423114;80;28579;-87
2021/04/24 20:25:00;;;;;;;20.62;9.95;;;;;;;14.43;46.74;99489.33;4356707;81;28574;-83
2021/04/24 20:31:02;;;;;;;20.40;9.40;;;;;;;14.16;51.81;99486.73;4365594;80;28616;-83
2021/04/24 20:37:05;;;;;;;19.77;9.43;;;;;;;14.03;52.56;99483.79;4380324;80;28577;-85
2021/04/24 20:43:08;;;;;;;22.45;8.33;;;;;;;14.02;50.17;99486.20;4412700;80;28592;-83
2021/04/24 20:49:10;;;;;;;21.10;8.40;;;;;;;13.93;47.05;99486.31;4368310;80;28934;-84
2021/04/24 20:55:13;;;;;;;19.50;8.90;;;;;;;14.11;44.33;99479.06;4262921;81;28610;-84
2021/04/24 21:01:15;;;;;;;17.70;7.53;;;;;;;13.76;49.63;99482.22;4310114;81;28576;-86
2021/04/24 21:07:17;;;;;;;18.52;7.70;;;;;;;14.06;45.79;99473.86;4292418;81;28599;-86
2021/04/24 21:13:20;;;;;;;18.50;8.58;;;;;;;13.83;48.66;99478.02;4313329;81;28636;-86
2021/04/24 21:19:22;;;;;;;17.02;8.05;;;;;;;13.58;52.39;99477.28;4290221;80;28595;-87
2021/04/24 21:25:24;;;;;;;17.35;8.08;;;;;;;13.55;46.99;99473.72;4286034;81;28592;-86
2021/04/24 21:31:26;;;;;;;16.48;7.97;;;;;;;13.38;57.01;99470.92;4301187;81;28678;-85
2021/04/24 21:37:29;;;;;;;19.73;8.08;;;;;;;13.38;52.29;99472.27;4310470;82;28670;-86
2021/04/24 21:43:31;;;;;;;24.30;10.32;;;;;;;13.28;52.42;99470.71;4296720;81;28590;-86
2021/04/24 21:49:33;;;;;;;22.32;9.23;;;;;;;12.37;54.76;99478.14;4298656;80;28613;-85
2021/04/24 21:55:35;;;;;;;26.48;11.25;;;;;;;12.92;52.03;99479.70;4321313;81;28601;-85
2021/04/24 22:01:38;;;;;;;25.40;11.35;;;;;;;12.41;51.68;99482.00;4317195;81;28598;-86
2021/04/24 22:07:40;;;;;;;26.40;12.35;;;;;;;12.91;50.42;99474.52;4366766;80;28661;-84
2021/04/24 22:13:42;;;;;;;25.68;10.40;;;;;;;13.07;48.91;99476.52;4371100;80;28693;-84
2021/04/24 22:19:44;;;;;;;22.93;10.00;;;;;;;13.51;49.07;99463.91;4367426;80;28625;-85
2021/04/24 22:25:47;;;;;;;25.77;9.95;;;;;;;13.79;49.06;99469.56;4364611;80;28681;-85
2021/04/24 22:31:51;;;;;;;17.80;8.68;;;;;;;13.31;51.13;99463.48;4318848;81;28574;-86
2021/04/24 22:37:53;;;;;;;29.82;14.70;;;;;;;13.18;53.82;99459.98;4325436;81;28595;-86
2021/04/24 22:43:55;;;;;;;35.50;14.65;;;;;;;12.77;51.60;99474.77;4358858;81;28579;-85
2021/04/24 22:49:57;;;;;;;27.55;14.10;;;;;;;13.06;50.13;99461.34;4351240;81;28604;-87
2021/04/24 22:56:00;;;;;;;32.67;14.28;;;;;;;12.89;49.63;99467.20;4378795;80;28610;-84
2021/04/24 23:02:02;;;;;;;32.30;14.05;;;;;;;12.69;49.27;99465.67;4362044;81;28605;-85
2021/04/24 23:08:06;;;;;;;35.52;14.87;;;;;;;12.45;49.91;99476.97;4320028;81;28605;-85
2021/04/24 23:14:08;;;;;;;35.43;15.85;;;;;;;12.03;51.28;99467.86;4381738;80;28914;-85
2021/04/24 23:20:14;;;;;;;33.53;14.15;;;;;;;11.90;51.84;99467.49;4335341;81;28668;-85
2021/04/24 23:26:16;;;;;;;35.67;14.93;;;;;;;12.43;49.86;99463.70;4303978;81;28625;-85
2021/04/24 23:32:18;;;;;;;30.97;13.72;;;;;;;12.51;49.91;99455.83;4328900;81;28584;-87
2021/04/24 23:38:20;;;;;;;35.10;13.78;;;;;;;12.53;49.99;99449.66;4331049;81;28576;-87
2021/04/24 23:44:22;;;;;;;34.00;14.83;;;;;;;12.53;49.93;99453.16;4337420;81;28614;-87
2021/04/24 23:50:24;;;;;;;30.90;13.65;;;;;;;12.51;50.01;99441.80;4347070;81;28583;-86
2021/04/24 23:56:26;;;;;;;32.00;14.05;;;;;;;12.47;50.19;99445.19;4363290;80;28631;-87
